Forside
METAR-TAF:

METAR-TAF

Lufthavne :

Eureka, Nevada, USA

Breddekreds: 39-36-05N, længdekreds: 116-00-20W, højde: 1812 m

Aktuelle vejr

Denne rapport blev lavet for 32 minutter siden, kl. 05:53 UTC
Vind 6 kt fra syd
Temperatur -2°C
Fugtighed 50%
Tryk 1022 hPa

METAR: KP68 220553Z AUTO 18006KT M02/M11 A3017 RMK AO1 SLP212 T10171106 10117 21017 50004

Tid: 22:25 (06:25 UTC)


TAF: fraværende

Vejrobservationer og prognoser fra mere end 4000 lufthavne (METAR og TAF).

De gule og røde prikker repræsenterer de meteorologiske stationer.

Flyt musen over at se navnet på stationen.

Så klik over at se vejr observationer og prognoser.

At skifte det kort: Klik på de grønne knapper med et sort kors for at zoome ind; på den grønne knap med en bindestreg for at zoome ud; eller på de grønne pile for tilstødende kort.


METAR-TAF: